Nesconset, New York
Current Conditions -  °F | °C
As of 3:26 AM on Sunday 21 Dec 2014 (Local Time) from KISP Reporting Station
Overcast Overcast  
Wind Chill: 26°   Ceiling: 2100
Heat Index: 32°   Visibility: 10mi
Dew Point: 25°   Wind: 7mph
Humidity: 75%   Direction: 290°WNW
Pressure: 30.25"   Gusts: NA
Location:  40.84°N, 73.14°W
Report Text: KISP 210826Z AUTO 29006KT 10SM BKN021 BKN027 OVC034 00/M04 A3025 RMK AO2 T00001039
Loading
Personal Weather Stations






























Interactive Weather Map New forecast layout! Learn more

10-Day Weather Forecast

Advertisements
Track Severe Weather on mobile